createdAt,value
2019-02-08T00:00:01.543Z,21.15
2019-02-08T00:00:40.494Z,18.57
2019-02-08T00:01:19.003Z,19.17
2019-02-08T00:01:52.620Z,19.07
2019-02-08T00:02:26.598Z,20.90
2019-02-08T00:03:00.433Z,19.73
2019-02-08T00:03:34.093Z,19.02
2019-02-08T00:04:08.272Z,18.77
2019-02-08T00:04:41.957Z,20.27
2019-02-08T00:05:16.093Z,19.90
2019-02-08T00:05:49.639Z,20.82
2019-02-08T00:06:23.602Z,20.12
2019-02-08T00:06:57.172Z,20.35
2019-02-08T00:07:30.689Z,20.75
2019-02-08T00:08:04.591Z,22.13
2019-02-08T00:08:38.100Z,19.32
2019-02-08T00:09:11.607Z,20.52
2019-02-08T00:09:45.147Z,20.05
2019-02-08T00:10:18.908Z,20.10
2019-02-08T00:10:52.427Z,20.57
2019-02-08T00:11:26.129Z,20.32
2019-02-08T00:11:59.752Z,19.48
2019-02-08T00:12:33.357Z,20.77
2019-02-08T00:13:07.265Z,20.45
2019-02-08T00:13:40.824Z,21.48
2019-02-08T00:14:14.413Z,20.60
2019-02-08T00:14:47.903Z,21.02
2019-02-08T00:15:21.792Z,22.82
2019-02-08T00:15:55.314Z,20.08
2019-02-08T00:16:28.875Z,20.25
2019-02-08T00:17:02.572Z,20.10
2019-02-08T00:17:36.139Z,21.02
2019-02-08T00:18:09.919Z,19.40
2019-02-08T00:18:43.518Z,20.55
2019-02-08T00:19:17.021Z,21.17
2019-02-08T00:19:50.512Z,19.50
2019-02-08T00:20:24.038Z,19.85
2019-02-08T00:20:57.636Z,21.05
2019-02-08T00:21:31.152Z,19.07
2019-02-08T00:22:06.095Z,20.75
2019-02-08T00:22:39.878Z,18.55
2019-02-08T00:23:13.446Z,19.42
2019-02-08T00:23:47.363Z,21.65
2019-02-08T00:24:21.218Z,21.27
2019-02-08T00:24:55.021Z,19.85
2019-02-08T00:25:29.951Z,21.77
2019-02-08T00:26:03.978Z,20.62
2019-02-08T00:26:37.535Z,20.72
2019-02-08T00:27:11.353Z,21.10
2019-02-08T00:27:44.917Z,19.70
2019-02-08T00:28:19.012Z,21.45
2019-02-08T00:28:52.531Z,21.35
2019-02-08T00:29:26.062Z,21.17
2019-02-08T00:29:59.581Z,20.25
2019-02-08T00:30:33.102Z,21.33
2019-02-08T00:31:06.880Z,21.25
2019-02-08T00:31:40.478Z,21.95
2019-02-08T00:32:14.029Z,21.02
2019-02-08T00:32:47.523Z,20.68
2019-02-08T00:33:21.060Z,22.25
2019-02-08T00:33:54.743Z,21.07
2019-02-08T00:34:28.237Z,21.65
2019-02-08T00:35:01.736Z,22.05
2019-02-08T00:35:35.340Z,20.92
2019-02-08T00:36:08.872Z,20.80
2019-02-08T00:36:42.383Z,23.05
2019-02-08T00:37:16.030Z,21.95
2019-02-08T00:37:49.668Z,22.65
2019-02-08T00:38:23.337Z,21.70
2019-02-08T00:38:57.146Z,20.45
2019-02-08T00:39:30.748Z,21.02
2019-02-08T00:40:05.064Z,20.62
2019-02-08T00:40:38.581Z,21.80
2019-02-08T00:41:16.554Z,20.70
2019-02-08T00:41:51.811Z,19.20
2019-02-08T00:42:25.283Z,20.75
2019-02-08T00:42:58.838Z,19.70
2019-02-08T00:43:32.313Z,20.72
2019-02-08T00:44:05.915Z,20.75
2019-02-08T00:44:39.464Z,21.12
2019-02-08T00:45:14.195Z,18.50
2019-02-08T00:45:47.720Z,20.15
2019-02-08T00:46:21.277Z,19.90
2019-02-08T00:46:54.884Z,19.60
2019-02-08T00:47:28.517Z,22.93
2019-02-08T00:48:02.092Z,20.43
2019-02-08T00:48:35.725Z,21.55
2019-02-08T00:49:09.505Z,20.95
2019-02-08T00:49:43.006Z,21.65
2019-02-08T00:50:17.936Z,19.62
2019-02-08T00:50:51.535Z,21.00
2019-02-08T00:51:25.340Z,20.12
2019-02-08T00:51:59.068Z,21.93
2019-02-08T00:52:32.774Z,20.37
2019-02-08T00:53:06.286Z,20.95
2019-02-08T00:53:39.982Z,20.82
2019-02-08T00:54:13.528Z,20.27
2019-02-08T00:54:47.219Z,21.15
2019-02-08T00:55:20.780Z,20.62
2019-02-08T00:55:54.323Z,21.95
2019-02-08T00:56:27.870Z,21.45
2019-02-08T00:57:01.417Z,21.02
2019-02-08T00:57:34.926Z,20.23
2019-02-08T00:58:08.418Z,20.08
2019-02-08T00:58:42.011Z,21.65
2019-02-08T00:59:15.564Z,20.23
2019-02-08T00:59:49.057Z,19.70
2019-02-08T01:00:22.858Z,21.50
2019-02-08T01:00:56.449Z,20.60
2019-02-08T01:01:30.064Z,21.55
2019-02-08T01:02:03.657Z,20.65
2019-02-08T01:02:37.168Z,20.17
2019-02-08T01:03:10.741Z,21.50
2019-02-08T01:03:44.240Z,21.73
2019-02-08T01:04:17.751Z,21.33
2019-02-08T01:04:51.264Z,21.02
2019-02-08T01:05:25.180Z,20.05
2019-02-08T01:05:58.719Z,21.17
2019-02-08T01:06:32.228Z,20.12
2019-02-08T01:07:07.898Z,22.20
2019-02-08T01:07:41.425Z,21.55
2019-02-08T01:08:14.975Z,21.50
2019-02-08T01:08:48.788Z,22.07
2019-02-08T01:09:22.275Z,21.33
2019-02-08T01:09:56.072Z,21.20
2019-02-08T01:10:30.055Z,21.60
2019-02-08T01:11:04.134Z,21.20
2019-02-08T01:11:37.730Z,21.23
2019-02-08T01:12:11.712Z,21.00
2019-02-08T01:12:45.351Z,21.87
2019-02-08T01:13:19.064Z,20.92
2019-02-08T01:13:52.629Z,22.32
2019-02-08T01:14:26.141Z,19.62
2019-02-08T01:14:59.665Z,21.87
2019-02-08T01:15:33.598Z,19.45
2019-02-08T01:16:07.178Z,21.05
2019-02-08T01:16:40.757Z,21.90
2019-02-08T01:17:14.276Z,21.10
2019-02-08T01:17:48.051Z,20.57
2019-02-08T01:18:21.646Z,20.52
2019-02-08T01:18:55.172Z,22.15
2019-02-08T01:19:28.792Z,22.35
2019-02-08T01:20:02.488Z,21.10
2019-02-08T01:20:36.174Z,20.40
2019-02-08T01:21:09.713Z,20.40
2019-02-08T01:21:43.250Z,20.68
2019-02-08T01:22:16.839Z,20.72
2019-02-08T01:22:50.338Z,20.97
2019-02-08T01:23:23.869Z,20.30
2019-02-08T01:23:57.397Z,20.77
2019-02-08T01:24:30.933Z,20.92
2019-02-08T01:25:05.924Z,21.82
2019-02-08T01:25:39.543Z,22.15
2019-02-08T01:26:13.050Z,21.75
2019-02-08T01:26:46.600Z,21.73
2019-02-08T01:27:20.164Z,22.62
2019-02-08T01:27:53.758Z,20.62
2019-02-08T01:28:27.199Z,21.12
2019-02-08T01:29:00.780Z,20.25
2019-02-08T01:29:34.352Z,20.97
2019-02-08T01:30:09.412Z,21.05
2019-02-08T01:30:42.949Z,21.10
2019-02-08T01:31:16.549Z,21.42
2019-02-08T01:31:50.187Z,22.22
2019-02-08T01:32:23.700Z,21.87
2019-02-08T01:32:57.408Z,22.65
2019-02-08T01:33:30.915Z,21.55
2019-02-08T01:34:04.520Z,22.67
2019-02-08T01:34:38.007Z,20.57
2019-02-08T01:35:12.326Z,20.88
2019-02-08T01:35:45.926Z,20.95
2019-02-08T01:36:19.429Z,22.30
2019-02-08T01:36:52.945Z,20.37
2019-02-08T01:37:26.476Z,22.15
2019-02-08T01:38:00.023Z,21.65
2019-02-08T01:38:33.512Z,21.40
2019-02-08T01:39:07.776Z,20.72
2019-02-08T01:39:41.348Z,21.95
2019-02-08T01:40:19.020Z,22.30
2019-02-08T01:40:52.495Z,20.92
2019-02-08T01:41:26.013Z,19.62
2019-02-08T01:41:59.564Z,20.88
2019-02-08T01:42:33.149Z,21.75
2019-02-08T01:43:07.148Z,20.80
2019-02-08T01:43:40.656Z,22.40
2019-02-08T01:44:14.168Z,22.73
2019-02-08T01:44:47.728Z,21.15
2019-02-08T01:45:22.202Z,21.25
2019-02-08T01:45:55.739Z,19.95
2019-02-08T01:46:29.232Z,20.90
2019-02-08T01:47:03.036Z,23.15
2019-02-08T01:47:36.567Z,20.37
2019-02-08T01:48:10.100Z,23.65
2019-02-08T01:48:43.683Z,22.13
2019-02-08T01:49:17.172Z,21.60
2019-02-08T01:49:50.669Z,21.90
2019-02-08T01:50:25.016Z,21.40
2019-02-08T01:50:58.671Z,22.02
2019-02-08T01:51:32.269Z,21.62
2019-02-08T01:52:05.822Z,21.73
2019-02-08T01:52:39.346Z,21.50
2019-02-08T01:53:12.996Z,21.90
2019-02-08T01:53:48.780Z,20.92
2019-02-08T01:54:21.709Z,22.70
2019-02-08T01:54:55.206Z,21.60
2019-02-08T01:55:28.927Z,22.45
2019-02-08T01:56:02.428Z,21.90
2019-02-08T01:56:36.068Z,22.48
2019-02-08T01:57:09.585Z,21.90
2019-02-08T01:57:43.392Z,21.77
2019-02-08T01:58:16.880Z,22.80
2019-02-08T01:58:50.436Z,21.17
2019-02-08T01:59:23.979Z,22.67
2019-02-08T01:59:57.510Z,20.45
2019-02-08T02:00:32.457Z,22.67
2019-02-08T02:01:06.556Z,21.05
2019-02-08T02:01:44.601Z,19.95
2019-02-08T02:02:18.521Z,20.88
2019-02-08T02:02:52.197Z,21.55
2019-02-08T02:03:25.794Z,20.43
2019-02-08T02:04:00.801Z,20.90
2019-02-08T02:04:35.834Z,21.17
2019-02-08T02:05:09.637Z,22.13
2019-02-08T02:05:44.927Z,21.57
2019-02-08T02:06:18.441Z,19.67
2019-02-08T02:06:55.957Z,21.05
2019-02-08T02:07:41.271Z,22.95
2019-02-08T02:08:15.140Z,22.27
2019-02-08T02:08:53.152Z,20.72
2019-02-08T02:09:26.789Z,20.20
2019-02-08T02:10:03.083Z,22.45
2019-02-08T02:10:37.931Z,21.65
2019-02-08T02:11:11.460Z,19.45
2019-02-08T02:11:44.967Z,21.25
2019-02-08T02:12:19.979Z,23.52
2019-02-08T02:13:01.566Z,21.05
2019-02-08T02:13:35.133Z,19.95
2019-02-08T02:14:14.249Z,21.65
2019-02-08T02:14:47.772Z,22.17
2019-02-08T02:15:21.461Z,20.90
2019-02-08T02:15:54.951Z,20.68
2019-02-08T02:16:30.117Z,20.45
2019-02-08T02:17:10.765Z,20.20
2019-02-08T02:17:54.042Z,21.30
2019-02-08T02:18:27.536Z,20.02
2019-02-08T02:19:04.212Z,21.40
2019-02-08T02:19:43.258Z,20.10
2019-02-08T02:20:17.797Z,19.92
2019-02-08T02:20:52.063Z,20.30
2019-02-08T02:21:29.044Z,19.50
2019-02-08T02:22:02.730Z,23.38
2019-02-08T02:22:39.697Z,21.48
2019-02-08T02:23:17.053Z,20.08
2019-02-08T02:23:55.947Z,22.02
2019-02-08T02:24:25.974Z,20.60
2019-02-08T02:25:02.506Z,20.00
2019-02-08T02:25:41.084Z,20.62
2019-02-08T02:26:14.605Z,20.75
2019-02-08T02:26:53.249Z,21.85
2019-02-08T02:27:26.728Z,22.67
2019-02-08T02:28:01.697Z,22.75
2019-02-08T02:28:37.836Z,19.57
2019-02-08T02:29:15.295Z,22.65
2019-02-08T02:29:57.143Z,20.45
2019-02-08T02:30:34.793Z,21.73
2019-02-08T02:31:10.204Z,20.70
2019-02-08T02:31:46.356Z,20.45
2019-02-08T02:32:19.754Z,20.15
2019-02-08T02:32:55.472Z,19.32
2019-02-08T02:33:56.670Z,19.85
2019-02-08T02:34:52.661Z,19.15
2019-02-08T02:35:32.529Z,20.02
2019-02-08T02:36:06.072Z,19.23
2019-02-08T02:36:39.570Z,19.82
2019-02-08T02:37:13.636Z,19.50
2019-02-08T02:37:47.285Z,20.40
2019-02-08T02:38:34.349Z,18.40
2019-02-08T02:39:11.677Z,19.40
2019-02-08T02:39:49.388Z,19.90
2019-02-08T02:40:26.514Z,21.20
2019-02-08T02:41:00.444Z,20.95
2019-02-08T02:41:34.145Z,21.23
2019-02-08T02:42:09.123Z,19.98
2019-02-08T02:42:53.300Z,20.68
2019-02-08T02:43:26.657Z,19.95
2019-02-08T02:44:04.982Z,21.35
2019-02-08T02:44:43.899Z,19.50
2019-02-08T02:45:19.897Z,19.70
2019-02-08T02:45:55.798Z,20.25
2019-02-08T02:46:29.297Z,19.55
2019-02-08T02:47:08.453Z,20.72
2019-02-08T02:47:41.983Z,20.37
2019-02-08T02:48:18.298Z,19.60
2019-02-08T02:48:55.424Z,18.42
2019-02-08T02:49:29.054Z,19.98
2019-02-08T02:50:02.584Z,20.20
2019-02-08T02:50:36.360Z,19.02
2019-02-08T02:51:16.150Z,20.72
2019-02-08T02:52:01.425Z,22.17
2019-02-08T02:52:35.032Z,19.07
2019-02-08T02:53:08.958Z,19.45
2019-02-08T02:53:50.463Z,20.92
2019-02-08T02:54:23.994Z,18.95
2019-02-08T02:55:00.290Z,19.87
2019-02-08T02:55:34.653Z,22.02
2019-02-08T02:56:12.720Z,20.90
2019-02-08T02:56:46.237Z,21.15
2019-02-08T02:57:19.817Z,21.33
2019-02-08T02:57:53.609Z,20.62
2019-02-08T02:58:27.114Z,19.65
2019-02-08T02:59:00.633Z,19.75
2019-02-08T02:59:34.121Z,19.07
2019-02-08T03:00:12.206Z,19.57
2019-02-08T03:00:47.030Z,19.95
2019-02-08T03:01:20.525Z,19.37
2019-02-08T03:01:54.069Z,20.60
2019-02-08T03:02:27.590Z,20.23
2019-02-08T03:03:01.095Z,19.60
2019-02-08T03:03:34.609Z,19.12
2019-02-08T03:04:08.212Z,20.43
2019-02-08T03:04:41.718Z,19.07
2019-02-08T03:05:15.356Z,20.40
2019-02-08T03:05:48.844Z,20.23
2019-02-08T03:06:22.346Z,19.95
2019-02-08T03:06:55.864Z,19.85
2019-02-08T03:07:29.443Z,18.65
2019-02-08T03:08:03.525Z,19.65
2019-02-08T03:08:37.052Z,18.17
2019-02-08T03:09:10.520Z,19.48
2019-02-08T03:09:44.074Z,19.10
2019-02-08T03:10:18.129Z,18.80
2019-02-08T03:10:51.807Z,19.90
2019-02-08T03:11:25.387Z,18.57
2019-02-08T03:11:58.941Z,18.82
2019-02-08T03:12:32.473Z,18.82
2019-02-08T03:13:06.167Z,19.07
2019-02-08T03:13:39.682Z,19.73
2019-02-08T03:14:13.218Z,20.70
2019-02-08T03:14:46.678Z,20.08
2019-02-08T03:15:20.493Z,18.42
2019-02-08T03:15:54.028Z,19.77
2019-02-08T03:16:27.591Z,19.27
2019-02-08T03:17:01.157Z,19.02
2019-02-08T03:17:34.674Z,19.12
2019-02-08T03:18:08.210Z,18.57
2019-02-08T03:18:41.763Z,19.80
2019-02-08T03:19:15.338Z,21.40
2019-02-08T03:19:48.836Z,21.00
2019-02-08T03:20:22.781Z,19.20
2019-02-08T03:20:56.357Z,19.75
2019-02-08T03:21:29.771Z,19.25
2019-02-08T03:22:03.293Z,20.48
2019-02-08T03:22:36.794Z,19.17
2019-02-08T03:23:10.349Z,21.48
2019-02-08T03:23:43.918Z,19.17
2019-02-08T03:24:17.413Z,20.08
2019-02-08T03:24:51.006Z,18.20
2019-02-08T03:25:24.791Z,19.60
2019-02-08T03:25:58.400Z,18.65
2019-02-08T03:26:31.959Z,19.23
2019-02-08T03:27:05.509Z,19.60
2019-02-08T03:27:39.005Z,18.80
2019-02-08T03:28:12.517Z,18.40
2019-02-08T03:28:46.028Z,19.55
2019-02-08T03:29:19.525Z,20.57
2019-02-08T03:29:53.918Z,20.12
2019-02-08T03:30:40.774Z,20.27
2019-02-08T03:31:14.273Z,17.55
2019-02-08T03:31:48.126Z,18.85
2019-02-08T03:32:21.609Z,18.57
2019-02-08T03:32:55.206Z,19.70
2019-02-08T03:33:28.693Z,20.48
2019-02-08T03:34:02.239Z,19.62
2019-02-08T03:34:35.810Z,18.82
2019-02-08T03:35:11.526Z,18.95
2019-02-08T03:35:45.132Z,18.80
2019-02-08T03:36:18.657Z,17.23
2019-02-08T03:36:52.209Z,17.67
2019-02-08T03:37:25.702Z,19.10
2019-02-08T03:37:59.247Z,18.60
2019-02-08T03:38:32.683Z,18.23
2019-02-08T03:39:07.869Z,19.12
2019-02-08T03:39:41.384Z,18.00
2019-02-08T03:40:16.285Z,18.77
2019-02-08T03:40:49.804Z,18.75
2019-02-08T03:41:23.337Z,19.82
2019-02-08T03:41:56.840Z,18.42
2019-02-08T03:42:30.329Z,20.77
2019-02-08T03:43:04.026Z,19.48
2019-02-08T03:43:37.581Z,18.25
2019-02-08T03:44:11.181Z,19.37
2019-02-08T03:44:44.757Z,19.77
2019-02-08T03:45:18.667Z,19.15
2019-02-08T03:45:53.453Z,19.95
2019-02-08T03:46:26.936Z,18.92
2019-02-08T03:47:00.439Z,18.55
2019-02-08T03:47:34.139Z,18.77
2019-02-08T03:48:07.850Z,19.20
2019-02-08T03:48:41.515Z,19.65
2019-02-08T03:49:15.036Z,19.77
2019-02-08T03:49:48.551Z,19.82
2019-02-08T03:50:22.737Z,20.75
2019-02-08T03:50:56.268Z,18.55
2019-02-08T03:51:30.094Z,19.45
2019-02-08T03:52:03.691Z,19.00
2019-02-08T03:52:37.935Z,18.45
2019-02-08T03:53:11.772Z,19.12
2019-02-08T03:53:45.395Z,19.23
2019-02-08T03:54:21.113Z,18.85
2019-02-08T03:54:54.144Z,19.57
2019-02-08T03:55:27.673Z,19.20
2019-02-08T03:56:01.158Z,21.05
2019-02-08T03:56:34.685Z,19.07
2019-02-08T03:57:08.235Z,18.55
2019-02-08T03:57:41.789Z,19.60
2019-02-08T03:58:15.331Z,19.55
2019-02-08T03:58:48.826Z,17.87
2019-02-08T03:59:22.345Z,18.15
2019-02-08T03:59:56.094Z,19.67
2019-02-08T04:00:33.255Z,19.50
2019-02-08T04:01:08.294Z,18.70
2019-02-08T04:01:41.906Z,17.82
2019-02-08T04:02:15.685Z,19.98
2019-02-08T04:02:49.297Z,18.80
2019-02-08T04:03:22.960Z,18.17
2019-02-08T04:04:07.505Z,19.07
2019-02-08T04:04:41.038Z,18.23
2019-02-08T04:05:15.045Z,17.12
2019-02-08T04:05:48.626Z,18.85
2019-02-08T04:06:22.189Z,18.05
2019-02-08T04:06:55.721Z,20.02
2019-02-08T04:07:29.316Z,18.73
2019-02-08T04:08:03.076Z,19.20
2019-02-08T04:08:36.591Z,18.62
2019-02-08T04:09:10.309Z,18.05
2019-02-08T04:09:43.832Z,18.92
2019-02-08T04:10:17.782Z,18.62
2019-02-08T04:10:51.260Z,18.70
2019-02-08T04:11:24.785Z,22.42
2019-02-08T04:11:58.314Z,19.32
2019-02-08T04:12:31.911Z,19.32
2019-02-08T04:13:05.689Z,19.37
2019-02-08T04:13:39.437Z,18.02
2019-02-08T04:14:12.949Z,22.07
2019-02-08T04:14:46.454Z,20.65
2019-02-08T04:15:20.300Z,18.80
2019-02-08T04:15:53.817Z,18.17
2019-02-08T04:16:27.401Z,20.02
2019-02-08T04:17:00.992Z,18.92
2019-02-08T04:17:34.473Z,19.90
2019-02-08T04:18:08.744Z,17.55
2019-02-08T04:18:42.646Z,19.12
2019-02-08T04:19:16.318Z,17.95
2019-02-08T04:19:49.825Z,18.92
2019-02-08T04:20:25.171Z,19.35
2019-02-08T04:20:58.729Z,17.52
2019-02-08T04:21:32.227Z,20.12
2019-02-08T04:22:05.749Z,19.85
2019-02-08T04:22:42.025Z,19.42
2019-02-08T04:23:20.212Z,18.55
2019-02-08T04:23:53.793Z,18.40
2019-02-08T04:24:29.999Z,18.65
2019-02-08T04:25:02.684Z,18.80
2019-02-08T04:25:39.223Z,19.10
2019-02-08T04:26:12.983Z,20.17
2019-02-08T04:26:46.533Z,18.77
2019-02-08T04:27:20.017Z,18.17
2019-02-08T04:27:54.081Z,18.92
2019-02-08T04:28:27.869Z,18.65
2019-02-08T04:29:01.396Z,17.17
2019-02-08T04:29:34.881Z,19.15
2019-02-08T04:30:11.920Z,18.95
2019-02-08T04:30:45.433Z,19.82
2019-02-08T04:31:18.924Z,18.23
2019-02-08T04:31:52.424Z,19.52
2019-02-08T04:32:26.017Z,19.50
2019-02-08T04:32:59.839Z,18.90
2019-02-08T04:33:33.346Z,18.42
2019-02-08T04:34:06.855Z,17.87
2019-02-08T04:34:40.274Z,18.95
2019-02-08T04:35:13.793Z,18.60
2019-02-08T04:35:47.353Z,18.65
2019-02-08T04:36:20.850Z,17.92
2019-02-08T04:36:54.365Z,18.27
2019-02-08T04:37:27.842Z,17.95
2019-02-08T04:38:01.533Z,18.00
2019-02-08T04:38:35.114Z,18.87
2019-02-08T04:39:08.610Z,18.95
2019-02-08T04:39:42.188Z,17.92
2019-02-08T04:40:16.461Z,18.55
2019-02-08T04:40:49.963Z,18.60
2019-02-08T04:41:23.556Z,17.30
2019-02-08T04:41:57.165Z,16.90
2019-02-08T04:42:30.664Z,19.50
2019-02-08T04:43:04.435Z,17.65
2019-02-08T04:43:37.924Z,18.48
2019-02-08T04:44:11.503Z,17.42
2019-02-08T04:44:45.000Z,18.67
2019-02-08T04:45:19.009Z,18.17
2019-02-08T04:45:52.590Z,19.20
2019-02-08T04:46:26.088Z,17.42
2019-02-08T04:46:59.510Z,18.27
2019-02-08T04:47:33.185Z,19.35
2019-02-08T04:48:06.665Z,17.65
2019-02-08T04:48:40.303Z,17.40
2019-02-08T04:49:13.817Z,19.35
2019-02-08T04:49:47.302Z,16.27
2019-02-08T04:50:21.373Z,19.12
2019-02-08T04:50:54.907Z,18.20
2019-02-08T04:51:28.511Z,17.77
2019-02-08T04:52:01.995Z,17.95
2019-02-08T04:52:35.519Z,17.37
2019-02-08T04:53:09.014Z,18.00
2019-02-08T04:53:42.497Z,17.92
2019-02-08T04:54:16.051Z,18.20
2019-02-08T04:54:49.558Z,17.12
2019-02-08T04:55:23.271Z,17.20
2019-02-08T04:55:56.829Z,17.55
2019-02-08T04:56:30.359Z,17.73
2019-02-08T04:57:04.214Z,18.37
2019-02-08T04:57:39.457Z,17.73
2019-02-08T04:58:12.992Z,18.95
2019-02-08T04:58:46.521Z,17.00
2019-02-08T04:59:20.025Z,18.73
2019-02-08T04:59:53.585Z,17.85
2019-02-08T05:00:28.216Z,17.55
2019-02-08T05:01:01.805Z,16.77
2019-02-08T05:01:35.268Z,16.97
2019-02-08T05:02:08.778Z,17.02
2019-02-08T05:02:42.278Z,17.02
2019-02-08T05:03:15.905Z,17.02
2019-02-08T05:03:49.368Z,17.32
2019-02-08T05:04:22.939Z,17.52
2019-02-08T05:04:56.550Z,16.30
2019-02-08T05:05:30.099Z,16.87
2019-02-08T05:06:03.636Z,16.97
2019-02-08T05:06:37.212Z,17.10
2019-02-08T05:07:10.713Z,17.27
2019-02-08T05:07:44.214Z,17.40
2019-02-08T05:08:17.758Z,17.12
2019-02-08T05:08:51.276Z,16.82
2019-02-08T05:09:24.768Z,18.60
2019-02-08T05:09:58.287Z,17.35
2019-02-08T05:10:32.132Z,16.93
2019-02-08T05:11:05.611Z,16.85
2019-02-08T05:11:39.095Z,17.35
2019-02-08T05:12:12.801Z,17.10
2019-02-08T05:12:46.468Z,17.60
2019-02-08T05:13:20.110Z,16.60
2019-02-08T05:13:53.696Z,17.25
2019-02-08T05:14:27.181Z,15.30
2019-02-08T05:15:00.679Z,16.00
2019-02-08T05:15:34.445Z,16.62
2019-02-08T05:16:07.929Z,16.77
2019-02-08T05:16:41.488Z,16.40
2019-02-08T05:17:15.035Z,15.15
2019-02-08T05:17:48.524Z,17.45
2019-02-08T05:18:22.046Z,16.73
2019-02-08T05:18:55.694Z,16.55
2019-02-08T05:19:29.250Z,16.07
2019-02-08T05:20:03.027Z,16.10
2019-02-08T05:20:36.521Z,16.27
2019-02-08T05:21:10.072Z,16.35
2019-02-08T05:21:43.595Z,16.30
2019-02-08T05:22:17.091Z,17.12
2019-02-08T05:22:50.617Z,14.93
2019-02-08T05:23:24.172Z,16.05
2019-02-08T05:23:57.705Z,17.45
2019-02-08T05:24:31.231Z,17.05
2019-02-08T05:25:05.312Z,17.57
2019-02-08T05:25:38.829Z,16.90
2019-02-08T05:26:12.304Z,17.42
2019-02-08T05:26:45.883Z,16.60
2019-02-08T05:27:19.428Z,17.57
2019-02-08T05:27:53.043Z,16.57
2019-02-08T05:28:26.482Z,15.55
2019-02-08T05:29:00.001Z,16.87
2019-02-08T05:29:33.484Z,14.58
2019-02-08T05:30:09.097Z,15.43
2019-02-08T05:30:42.618Z,15.30
2019-02-08T05:31:16.119Z,15.40
2019-02-08T05:31:49.652Z,15.68
2019-02-08T05:32:23.216Z,15.63
2019-02-08T05:32:56.827Z,15.60
2019-02-08T05:33:30.350Z,16.25
2019-02-08T05:34:03.948Z,15.23
2019-02-08T05:34:37.443Z,15.23
2019-02-08T05:35:11.105Z,16.07
2019-02-08T05:35:44.653Z,15.72
2019-02-08T05:36:18.161Z,15.10
2019-02-08T05:36:51.772Z,16.82
2019-02-08T05:37:25.256Z,16.40
2019-02-08T05:37:58.968Z,15.58
2019-02-08T05:38:32.411Z,16.05
2019-02-08T05:39:08.241Z,15.28
2019-02-08T05:39:41.809Z,14.87
2019-02-08T05:40:16.305Z,16.25
2019-02-08T05:40:50.125Z,15.13
2019-02-08T05:41:23.734Z,15.80
2019-02-08T05:41:57.300Z,14.98
2019-02-08T05:42:30.841Z,16.50
2019-02-08T05:43:04.821Z,15.05
2019-02-08T05:43:38.522Z,15.20
2019-02-08T05:44:12.123Z,15.10
2019-02-08T05:44:45.698Z,15.93
2019-02-08T05:45:19.297Z,16.17
2019-02-08T05:45:52.828Z,16.42
2019-02-08T05:46:26.496Z,15.95
2019-02-08T05:47:00.077Z,14.53
2019-02-08T05:47:33.570Z,15.60
2019-02-08T05:48:07.205Z,15.90
2019-02-08T05:48:40.736Z,16.55
2019-02-08T05:49:14.257Z,15.53
2019-02-08T05:49:47.791Z,15.72
2019-02-08T05:50:22.398Z,15.10
2019-02-08T05:50:55.957Z,14.75
2019-02-08T05:51:29.492Z,15.30
2019-02-08T05:52:03.042Z,16.57
2019-02-08T05:52:36.490Z,15.38
2019-02-08T05:53:09.893Z,15.35
2019-02-08T05:53:43.381Z,16.23
2019-02-08T05:54:16.925Z,14.40
2019-02-08T05:54:54.446Z,16.70
2019-02-08T05:55:26.431Z,15.08
2019-02-08T05:55:59.937Z,14.83
2019-02-08T05:56:33.460Z,14.73
2019-02-08T05:57:07.937Z,14.45
2019-02-08T05:57:41.553Z,15.18
2019-02-08T05:58:15.065Z,14.93
2019-02-08T05:58:48.561Z,14.47
2019-02-08T05:59:22.084Z,15.10
2019-02-08T05:59:55.582Z,13.38
2019-02-08T06:00:58.558Z,15.80
2019-02-08T06:01:32.121Z,12.95
2019-02-08T06:02:05.622Z,15.28
2019-02-08T06:02:39.141Z,14.87
2019-02-08T06:03:12.670Z,13.68
2019-02-08T06:03:46.178Z,14.05
2019-02-08T06:04:19.721Z,14.38
2019-02-08T06:04:53.418Z,16.32
2019-02-08T06:05:27.198Z,15.23
2019-02-08T06:06:00.823Z,14.40
2019-02-08T06:06:34.361Z,14.65
2019-02-08T06:07:08.020Z,14.70
2019-02-08T06:07:41.561Z,14.95
2019-02-08T06:08:15.279Z,13.85
2019-02-08T06:08:48.801Z,12.93
2019-02-08T06:09:22.438Z,14.80
2019-02-08T06:09:56.021Z,13.65
2019-02-08T06:10:29.541Z,14.38
2019-02-08T06:11:03.047Z,14.73
2019-02-08T06:11:36.617Z,14.33
2019-02-08T06:12:10.120Z,14.80
2019-02-08T06:12:43.601Z,14.53
2019-02-08T06:13:17.256Z,14.80
2019-02-08T06:13:50.968Z,13.05
2019-02-08T06:14:24.467Z,14.43
2019-02-08T06:14:58.161Z,14.83
2019-02-08T06:15:31.783Z,14.03
2019-02-08T06:16:05.829Z,13.98
2019-02-08T06:16:39.342Z,14.20
2019-02-08T06:17:12.969Z,14.28
2019-02-08T06:17:46.804Z,14.85
2019-02-08T06:18:20.385Z,13.70
2019-02-08T06:18:53.883Z,13.60
2019-02-08T06:19:27.414Z,13.90
2019-02-08T06:20:00.958Z,13.05
2019-02-08T06:20:34.508Z,14.30
2019-02-08T06:21:08.197Z,15.20
2019-02-08T06:21:41.683Z,14.50
2019-02-08T06:22:15.258Z,14.87
2019-02-08T06:22:48.761Z,13.25
2019-02-08T06:23:22.306Z,14.00
2019-02-08T06:23:55.804Z,14.68
2019-02-08T06:24:29.331Z,13.05
2019-02-08T06:25:04.482Z,14.20
2019-02-08T06:25:38.526Z,14.38
2019-02-08T06:26:12.206Z,14.15
2019-02-08T06:26:45.694Z,13.90
2019-02-08T06:27:19.230Z,14.73
2019-02-08T06:27:52.782Z,14.60
2019-02-08T06:28:26.346Z,14.23
2019-02-08T06:28:59.900Z,13.93
2019-02-08T06:29:34.254Z,14.28
2019-02-08T06:30:09.391Z,13.03
2019-02-08T06:30:42.992Z,12.43
2019-02-08T06:31:16.576Z,13.60
2019-02-08T06:31:50.137Z,13.68
2019-02-08T06:32:23.642Z,13.55
2019-02-08T06:32:57.189Z,14.55
2019-02-08T06:33:49.879Z,12.95
2019-02-08T06:34:23.407Z,13.15
2019-02-08T06:34:56.881Z,12.25
2019-02-08T06:35:31.275Z,13.50
2019-02-08T06:36:05.000Z,14.73
2019-02-08T06:36:38.517Z,13.30
2019-02-08T06:37:12.154Z,13.60
2019-02-08T06:37:45.822Z,13.40
2019-02-08T06:38:19.328Z,14.35
2019-02-08T06:38:52.813Z,13.83
2019-02-08T06:39:26.394Z,14.18
2019-02-08T06:39:59.965Z,13.32
2019-02-08T06:40:34.243Z,13.40
2019-02-08T06:41:07.733Z,13.18
2019-02-08T06:41:41.536Z,14.38
2019-02-08T06:42:15.042Z,12.90
2019-02-08T06:42:49.048Z,14.15
2019-02-08T06:43:22.604Z,13.25
2019-02-08T06:43:56.197Z,14.05
2019-02-08T06:44:31.245Z,14.40
2019-02-08T06:45:06.508Z,14.20
2019-02-08T06:45:41.049Z,13.85
2019-02-08T06:46:15.758Z,14.73
2019-02-08T06:46:50.261Z,15.60
2019-02-08T06:47:24.644Z,14.33
2019-02-08T06:47:59.180Z,14.95
2019-02-08T06:48:34.066Z,12.98
2019-02-08T06:49:09.012Z,13.93
2019-02-08T06:49:43.982Z,12.85
2019-02-08T06:50:19.697Z,14.18
2019-02-08T06:50:54.619Z,13.30
2019-02-08T06:51:29.561Z,14.07
2019-02-08T06:52:04.039Z,14.53
2019-02-08T06:52:39.348Z,13.95
2019-02-08T06:53:14.303Z,13.40
2019-02-08T06:53:48.994Z,13.45
2019-02-08T06:54:23.886Z,14.47
2019-02-08T06:54:58.640Z,13.58
2019-02-08T06:55:33.352Z,14.25
2019-02-08T06:56:10.703Z,15.32
2019-02-08T06:57:19.747Z,14.20
2019-02-08T06:58:19.216Z,13.30
2019-02-08T06:59:02.838Z,11.68
2019-02-08T06:59:52.731Z,14.05
2019-02-08T07:00:34.517Z,13.53
2019-02-08T07:01:28.246Z,14.35
2019-02-08T07:02:30.710Z,13.35
2019-02-08T07:03:13.025Z,13.43
2019-02-08T07:04:25.398Z,14.03
2019-02-08T07:05:18.031Z,14.00
2019-02-08T07:06:09.506Z,12.75
2019-02-08T07:06:58.013Z,13.48
2019-02-08T07:07:57.981Z,11.65
2019-02-08T07:08:57.582Z,13.32
2019-02-08T07:09:50.023Z,11.88
2019-02-08T07:10:47.538Z,11.30
2019-02-08T07:11:36.131Z,11.85
2019-02-08T07:12:29.016Z,12.37
2019-02-08T07:13:13.711Z,13.72
2019-02-08T07:14:16.312Z,12.20
2019-02-08T07:15:10.858Z,13.13
2019-02-08T07:16:07.288Z,13.18
2019-02-08T07:17:19.036Z,11.90
2019-02-08T07:18:27.827Z,13.00
2019-02-08T07:19:10.253Z,12.95
2019-02-08T07:20:02.471Z,12.10
2019-02-08T07:20:43.990Z,12.30
2019-02-08T07:21:35.426Z,13.25
2019-02-08T07:22:33.483Z,12.43
2019-02-08T07:23:25.607Z,12.30
2019-02-08T07:24:17.861Z,13.72
2019-02-08T07:25:26.423Z,13.22
2019-02-08T07:26:23.214Z,13.03
2019-02-08T07:27:29.558Z,11.93
2019-02-08T07:28:35.706Z,12.35
2019-02-08T07:29:27.674Z,11.83
2019-02-08T07:30:22.395Z,11.85
2019-02-08T07:31:28.149Z,12.28
2019-02-08T07:32:25.036Z,12.05
2019-02-08T07:33:09.444Z,11.40
2019-02-08T07:33:57.041Z,10.98
2019-02-08T07:34:51.335Z,12.28
2019-02-08T07:35:45.467Z,11.57